sensor_id;sensor_type;location;lat;lon;timestamp;P1;durP1;ratioP1;P2;durP2;ratioP2
44750;SDS011;30477;48.224;11.470;2023-12-28T00:01:07;6.63;;;4.78;;
44750;SDS011;30477;48.224;11.470;2023-12-28T00:03:32;7.57;;;4.70;;
44750;SDS011;30477;48.224;11.470;2023-12-28T00:05:57;7.90;;;5.03;;
44750;SDS011;30477;48.224;11.470;2023-12-28T00:08:22;5.83;;;4.33;;
44750;SDS011;30477;48.224;11.470;2023-12-28T00:10:48;6.23;;;4.37;;
44750;SDS011;30477;48.224;11.470;2023-12-28T00:13:13;5.53;;;4.47;;
44750;SDS011;30477;48.224;11.470;2023-12-28T00:15:39;5.90;;;4.10;;
44750;SDS011;30477;48.224;11.470;2023-12-28T00:18:04;9.63;;;4.77;;
44750;SDS011;30477;48.224;11.470;2023-12-28T00:20:29;5.20;;;3.87;;
44750;SDS011;30477;48.224;11.470;2023-12-28T00:22:54;8.33;;;4.23;;
44750;SDS011;30477;48.224;11.470;2023-12-28T00:25:20;5.70;;;4.23;;
44750;SDS011;30477;48.224;11.470;2023-12-28T00:27:45;5.90;;;4.20;;
44750;SDS011;30477;48.224;11.470;2023-12-28T00:30:11;6.17;;;4.27;;
44750;SDS011;30477;48.224;11.470;2023-12-28T00:32:36;5.88;;;4.25;;
44750;SDS011;30477;48.224;11.470;2023-12-28T00:35:02;6.57;;;4.30;;
44750;SDS011;30477;48.224;11.470;2023-12-28T00:37:27;5.67;;;3.97;;
44750;SDS011;30477;48.224;11.470;2023-12-28T00:39:52;5.93;;;4.10;;
44750;SDS011;30477;48.224;11.470;2023-12-28T00:42:18;6.83;;;4.37;;
44750;SDS011;30477;48.224;11.470;2023-12-28T00:47:09;7.00;;;4.83;;
44750;SDS011;30477;48.224;11.470;2023-12-28T00:49:36;8.48;;;4.63;;
44750;SDS011;30477;48.224;11.470;2023-12-28T00:52:01;6.33;;;4.70;;
44750;SDS011;30477;48.224;11.470;2023-12-28T00:54:26;5.97;;;4.33;;
44750;SDS011;30477;48.224;11.470;2023-12-28T00:56:52;5.67;;;4.33;;
44750;SDS011;30477;48.224;11.470;2023-12-28T00:59:17;6.33;;;4.20;;
44750;SDS011;30477;48.224;11.470;2023-12-28T01:01:43;7.00;;;3.90;;
44750;SDS011;30477;48.224;11.470;2023-12-28T01:04:08;9.57;;;4.83;;
44750;SDS011;30477;48.224;11.470;2023-12-28T01:06:34;6.80;;;4.28;;
44750;SDS011;30477;48.224;11.470;2023-12-28T01:08:59;5.47;;;3.90;;
44750;SDS011;30477;48.224;11.470;2023-12-28T01:11:24;5.93;;;4.13;;
44750;SDS011;30477;48.224;11.470;2023-12-28T01:13:51;5.40;;;3.70;;
44750;SDS011;30477;48.224;11.470;2023-12-28T01:16:16;5.43;;;3.78;;
44750;SDS011;30477;48.224;11.470;2023-12-28T01:18:42;4.80;;;3.87;;
44750;SDS011;30477;48.224;11.470;2023-12-28T01:21:08;5.67;;;4.10;;
44750;SDS011;30477;48.224;11.470;2023-12-28T01:23:33;6.43;;;3.93;;
44750;SDS011;30477;48.224;11.470;2023-12-28T01:25:59;6.90;;;4.20;;
44750;SDS011;30477;48.224;11.470;2023-12-28T01:28:24;5.45;;;3.65;;
44750;SDS011;30477;48.224;11.470;2023-12-28T01:30:50;4.50;;;3.30;;
44750;SDS011;30477;48.224;11.470;2023-12-28T01:33:15;4.90;;;3.60;;
44750;SDS011;30477;48.224;11.470;2023-12-28T01:35:41;5.53;;;3.47;;
44750;SDS011;30477;48.224;11.470;2023-12-28T01:38:07;5.47;;;3.30;;
44750;SDS011;30477;48.224;11.470;2023-12-28T01:40:32;5.10;;;3.50;;
44750;SDS011;30477;48.224;11.470;2023-12-28T01:42:58;4.80;;;3.40;;
44750;SDS011;30477;48.224;11.470;2023-12-28T01:45:23;5.17;;;3.50;;
44750;SDS011;30477;48.224;11.470;2023-12-28T01:47:48;3.80;;;3.07;;
44750;SDS011;30477;48.224;11.470;2023-12-28T01:50:16;4.47;;;3.33;;
44750;SDS011;30477;48.224;11.470;2023-12-28T01:52:41;5.55;;;3.45;;
44750;SDS011;30477;48.224;11.470;2023-12-28T01:55:07;4.78;;;3.60;;
44750;SDS011;30477;48.224;11.470;2023-12-28T01:57:33;3.45;;;3.00;;
44750;SDS011;30477;48.224;11.470;2023-12-28T01:59:59;6.18;;;3.75;;
44750;SDS011;30477;48.224;11.470;2023-12-28T02:02:26;5.57;;;3.72;;
44750;SDS011;30477;48.224;11.470;2023-12-28T02:04:52;5.35;;;3.50;;
44750;SDS011;30477;48.224;11.470;2023-12-28T02:07:19;4.70;;;3.20;;
44750;SDS011;30477;48.224;11.470;2023-12-28T02:09:45;4.60;;;3.20;;
44750;SDS011;30477;48.224;11.470;2023-12-28T02:12:11;4.90;;;3.63;;
44750;SDS011;30477;48.224;11.470;2023-12-28T02:14:37;4.40;;;3.30;;
44750;SDS011;30477;48.224;11.470;2023-12-28T02:17:16;6.73;;;3.73;;
44750;SDS011;30477;48.224;11.470;2023-12-28T02:19:50;3.97;;;3.00;;
44750;SDS011;30477;48.224;11.470;2023-12-28T02:22:19;5.22;;;3.40;;
44750;SDS011;30477;48.224;11.470;2023-12-28T02:27:35;4.63;;;3.28;;
44750;SDS011;30477;48.224;11.470;2023-12-28T02:30:03;5.68;;;3.40;;
44750;SDS011;30477;48.224;11.470;2023-12-28T02:32:35;4.72;;;3.45;;
44750;SDS011;30477;48.224;11.470;2023-12-28T02:37:55;5.30;;;3.67;;
44750;SDS011;30477;48.224;11.470;2023-12-28T02:40:23;5.13;;;3.40;;
44750;SDS011;30477;48.224;11.470;2023-12-28T02:42:49;6.00;;;3.38;;
44750;SDS011;30477;48.224;11.470;2023-12-28T02:45:15;4.63;;;3.57;;
44750;SDS011;30477;48.224;11.470;2023-12-28T02:47:40;4.57;;;3.30;;
44750;SDS011;30477;48.224;11.470;2023-12-28T02:50:06;5.20;;;3.67;;
44750;SDS011;30477;48.224;11.470;2023-12-28T02:52:31;4.72;;;3.50;;
44750;SDS011;30477;48.224;11.470;2023-12-28T02:54:57;4.87;;;3.50;;
44750;SDS011;30477;48.224;11.470;2023-12-28T02:57:22;5.33;;;3.70;;
44750;SDS011;30477;48.224;11.470;2023-12-28T02:59:47;4.93;;;3.43;;
44750;SDS011;30477;48.224;11.470;2023-12-28T03:02:13;4.77;;;3.40;;
44750;SDS011;30477;48.224;11.470;2023-12-28T03:04:38;6.53;;;4.07;;
44750;SDS011;30477;48.224;11.470;2023-12-28T03:07:04;4.60;;;3.30;;
44750;SDS011;30477;48.224;11.470;2023-12-28T03:11:55;4.83;;;2.80;;
44750;SDS011;30477;48.224;11.470;2023-12-28T03:14:20;4.33;;;2.73;;
44750;SDS011;30477;48.224;11.470;2023-12-28T03:16:46;4.07;;;2.77;;
44750;SDS011;30477;48.224;11.470;2023-12-28T03:19:11;3.10;;;2.37;;
44750;SDS011;30477;48.224;11.470;2023-12-28T03:21:40;3.73;;;2.67;;
44750;SDS011;30477;48.224;11.470;2023-12-28T03:24:06;4.20;;;2.80;;
44750;SDS011;30477;48.224;11.470;2023-12-28T03:26:31;3.83;;;3.10;;
44750;SDS011;30477;48.224;11.470;2023-12-28T03:28:56;10.17;;;2.70;;
44750;SDS011;30477;48.224;11.470;2023-12-28T03:31:22;7.07;;;3.10;;
44750;SDS011;30477;48.224;11.470;2023-12-28T03:33:48;5.25;;;2.80;;
44750;SDS011;30477;48.224;11.470;2023-12-28T03:36:19;3.07;;;2.30;;
44750;SDS011;30477;48.224;11.470;2023-12-28T03:38:45;6.28;;;3.20;;
44750;SDS011;30477;48.224;11.470;2023-12-28T03:41:19;3.30;;;3.00;;
44750;SDS011;30477;48.224;11.470;2023-12-28T03:43:45;4.75;;;3.03;;
44750;SDS011;30477;48.224;11.470;2023-12-28T03:46:11;4.40;;;3.10;;
44750;SDS011;30477;48.224;11.470;2023-12-28T03:48:36;4.73;;;3.13;;
44750;SDS011;30477;48.224;11.470;2023-12-28T03:51:02;5.25;;;3.45;;
44750;SDS011;30477;48.224;11.470;2023-12-28T03:53:28;6.45;;;3.97;;
44750;SDS011;30477;48.224;11.470;2023-12-28T03:55:53;6.53;;;3.80;;
44750;SDS011;30477;48.224;11.470;2023-12-28T03:58:19;6.43;;;3.23;;
44750;SDS011;30477;48.224;11.470;2023-12-28T04:00:44;4.73;;;3.43;;
44750;SDS011;30477;48.224;11.470;2023-12-28T04:03:09;4.00;;;2.97;;
44750;SDS011;30477;48.224;11.470;2023-12-28T04:05:35;7.13;;;3.83;;
44750;SDS011;30477;48.224;11.470;2023-12-28T04:08:00;4.93;;;3.63;;
44750;SDS011;30477;48.224;11.470;2023-12-28T04:10:30;5.20;;;3.75;;
44750;SDS011;30477;48.224;11.470;2023-12-28T04:12:56;7.22;;;3.72;;
44750;SDS011;30477;48.224;11.470;2023-12-28T04:15:22;9.55;;;3.95;;
44750;SDS011;30477;48.224;11.470;2023-12-28T04:20:14;5.13;;;3.53;;
44750;SDS011;30477;48.224;11.470;2023-12-28T04:22:39;6.47;;;3.63;;
44750;SDS011;30477;48.224;11.470;2023-12-28T04:25:05;6.35;;;4.03;;
44750;SDS011;30477;48.224;11.470;2023-12-28T04:27:31;5.20;;;3.42;;
44750;SDS011;30477;48.224;11.470;2023-12-28T04:29:56;7.83;;;3.40;;
44750;SDS011;30477;48.224;11.470;2023-12-28T04:32:22;5.67;;;3.53;;
44750;SDS011;30477;48.224;11.470;2023-12-28T04:34:49;7.40;;;4.03;;
44750;SDS011;30477;48.224;11.470;2023-12-28T04:37:14;10.10;;;4.70;;
44750;SDS011;30477;48.224;11.470;2023-12-28T04:39:39;5.50;;;3.90;;
44750;SDS011;30477;48.224;11.470;2023-12-28T04:42:05;11.73;;;4.07;;
44750;SDS011;30477;48.224;11.470;2023-12-28T04:44:30;9.00;;;3.83;;
44750;SDS011;30477;48.224;11.470;2023-12-28T04:46:55;6.40;;;3.67;;
44750;SDS011;30477;48.224;11.470;2023-12-28T04:49:21;6.47;;;3.37;;
44750;SDS011;30477;48.224;11.470;2023-12-28T04:51:46;4.87;;;3.40;;
44750;SDS011;30477;48.224;11.470;2023-12-28T04:54:11;6.43;;;4.10;;
44750;SDS011;30477;48.224;11.470;2023-12-28T04:56:37;5.50;;;3.40;;
44750;SDS011;30477;48.224;11.470;2023-12-28T04:59:02;7.20;;;3.70;;
44750;SDS011;30477;48.224;11.470;2023-12-28T05:01:27;7.63;;;3.70;;
44750;SDS011;30477;48.224;11.470;2023-12-28T05:03:56;4.57;;;3.30;;
44750;SDS011;30477;48.224;11.470;2023-12-28T05:06:22;8.18;;;3.92;;
44750;SDS011;30477;48.224;11.470;2023-12-28T05:08:47;6.17;;;3.30;;
44750;SDS011;30477;48.224;11.470;2023-12-28T05:11:12;7.40;;;4.10;;
44750;SDS011;30477;48.224;11.470;2023-12-28T05:13:38;5.10;;;3.83;;
44750;SDS011;30477;48.224;11.470;2023-12-28T05:16:03;7.80;;;3.70;;
44750;SDS011;30477;48.224;11.470;2023-12-28T05:18:29;7.15;;;3.88;;
44750;SDS011;30477;48.224;11.470;2023-12-28T05:20:54;8.63;;;4.40;;
44750;SDS011;30477;48.224;11.470;2023-12-28T05:23:19;9.67;;;5.30;;
44750;SDS011;30477;48.224;11.470;2023-12-28T05:25:45;10.77;;;4.53;;
44750;SDS011;30477;48.224;11.470;2023-12-28T05:28:11;7.20;;;4.35;;
44750;SDS011;30477;48.224;11.470;2023-12-28T05:30:36;7.57;;;4.20;;
44750;SDS011;30477;48.224;11.470;2023-12-28T05:33:02;5.85;;;3.83;;
44750;SDS011;30477;48.224;11.470;2023-12-28T05:35:28;7.03;;;3.83;;
44750;SDS011;30477;48.224;11.470;2023-12-28T05:37:53;4.83;;;3.83;;
44750;SDS011;30477;48.224;11.470;2023-12-28T05:40:19;10.17;;;3.93;;
44750;SDS011;30477;48.224;11.470;2023-12-28T05:42:44;5.57;;;3.73;;
44750;SDS011;30477;48.224;11.470;2023-12-28T05:45:10;7.73;;;4.37;;
44750;SDS011;30477;48.224;11.470;2023-12-28T05:47:35;5.00;;;3.60;;
44750;SDS011;30477;48.224;11.470;2023-12-28T05:50:00;9.60;;;3.60;;
44750;SDS011;30477;48.224;11.470;2023-12-28T05:52:28;6.45;;;3.55;;
44750;SDS011;30477;48.224;11.470;2023-12-28T05:54:53;6.77;;;4.43;;
44750;SDS011;30477;48.224;11.470;2023-12-28T05:57:21;7.63;;;3.78;;
44750;SDS011;30477;48.224;11.470;2023-12-28T05:59:46;7.57;;;3.63;;
44750;SDS011;30477;48.224;11.470;2023-12-28T06:02:12;5.97;;;3.57;;
44750;SDS011;30477;48.224;11.470;2023-12-28T06:04:37;6.90;;;4.30;;
44750;SDS011;30477;48.224;11.470;2023-12-28T06:07:03;8.50;;;3.23;;
44750;SDS011;30477;48.224;11.470;2023-12-28T06:09:29;5.90;;;3.20;;
44750;SDS011;30477;48.224;11.470;2023-12-28T06:11:54;8.60;;;3.13;;
44750;SDS011;30477;48.224;11.470;2023-12-28T06:14:20;9.83;;;2.87;;
44750;SDS011;30477;48.224;11.470;2023-12-28T06:16:45;3.57;;;2.50;;
44750;SDS011;30477;48.224;11.470;2023-12-28T06:19:10;3.20;;;2.30;;
44750;SDS011;30477;48.224;11.470;2023-12-28T06:21:37;5.25;;;2.35;;
44750;SDS011;30477;48.224;11.470;2023-12-28T06:24:03;6.70;;;2.80;;
44750;SDS011;30477;48.224;11.470;2023-12-28T06:26:28;3.67;;;2.40;;
44750;SDS011;30477;48.224;11.470;2023-12-28T06:28:54;3.97;;;2.77;;
44750;SDS011;30477;48.224;11.470;2023-12-28T06:31:19;3.50;;;2.17;;
44750;SDS011;30477;48.224;11.470;2023-12-28T06:33:44;5.67;;;2.83;;
44750;SDS011;30477;48.224;11.470;2023-12-28T06:36:10;4.27;;;2.27;;
44750;SDS011;30477;48.224;11.470;2023-12-28T06:38:37;3.67;;;2.42;;
44750;SDS011;30477;48.224;11.470;2023-12-28T06:41:02;5.93;;;2.90;;
44750;SDS011;30477;48.224;11.470;2023-12-28T06:43:34;3.08;;;2.30;;
44750;SDS011;30477;48.224;11.470;2023-12-28T06:46:00;2.88;;;2.10;;
44750;SDS011;30477;48.224;11.470;2023-12-28T06:48:25;6.07;;;2.70;;
44750;SDS011;30477;48.224;11.470;2023-12-28T06:50:51;2.88;;;2.28;;
44750;SDS011;30477;48.224;11.470;2023-12-28T06:53:16;5.47;;;2.37;;
44750;SDS011;30477;48.224;11.470;2023-12-28T06:55:42;3.93;;;2.60;;
44750;SDS011;30477;48.224;11.470;2023-12-28T06:58:07;7.33;;;3.40;;
44750;SDS011;30477;48.224;11.470;2023-12-28T07:00:32;5.13;;;3.00;;
44750;SDS011;30477;48.224;11.470;2023-12-28T07:02:58;8.83;;;3.30;;
44750;SDS011;30477;48.224;11.470;2023-12-28T07:05:23;6.90;;;3.73;;
44750;SDS011;30477;48.224;11.470;2023-12-28T07:07:48;6.23;;;2.77;;
44750;SDS011;30477;48.224;11.470;2023-12-28T07:10:14;6.63;;;2.50;;
44750;SDS011;30477;48.224;11.470;2023-12-28T07:12:39;3.20;;;2.57;;
44750;SDS011;30477;48.224;11.470;2023-12-28T07:15:04;4.70;;;2.53;;
44750;SDS011;30477;48.224;11.470;2023-12-28T07:17:30;5.80;;;2.60;;
44750;SDS011;30477;48.224;11.470;2023-12-28T07:19:55;3.40;;;2.43;;
44750;SDS011;30477;48.224;11.470;2023-12-28T07:22:20;7.10;;;3.17;;
44750;SDS011;30477;48.224;11.470;2023-12-28T07:24:46;4.40;;;2.60;;
44750;SDS011;30477;48.224;11.470;2023-12-28T07:27:11;4.63;;;2.57;;
44750;SDS011;30477;48.224;11.470;2023-12-28T07:29:37;4.57;;;2.20;;
44750;SDS011;30477;48.224;11.470;2023-12-28T07:32:02;3.33;;;2.00;;
44750;SDS011;30477;48.224;11.470;2023-12-28T07:34:29;3.97;;;2.20;;
44750;SDS011;30477;48.224;11.470;2023-12-28T07:36:54;6.23;;;2.30;;
44750;SDS011;30477;48.224;11.470;2023-12-28T07:39:19;4.50;;;2.47;;
44750;SDS011;30477;48.224;11.470;2023-12-28T07:41:45;5.57;;;2.37;;
44750;SDS011;30477;48.224;11.470;2023-12-28T07:44:10;4.27;;;2.40;;
44750;SDS011;30477;48.224;11.470;2023-12-28T07:46:35;3.43;;;2.40;;
44750;SDS011;30477;48.224;11.470;2023-12-28T07:49:00;3.70;;;2.30;;
44750;SDS011;30477;48.224;11.470;2023-12-28T07:51:26;5.10;;;2.37;;
44750;SDS011;30477;48.224;11.470;2023-12-28T07:53:51;4.63;;;2.53;;
44750;SDS011;30477;48.224;11.470;2023-12-28T07:56:16;7.43;;;2.03;;
44750;SDS011;30477;48.224;11.470;2023-12-28T07:58:42;5.50;;;2.63;;
44750;SDS011;30477;48.224;11.470;2023-12-28T08:01:10;3.90;;;2.67;;
44750;SDS011;30477;48.224;11.470;2023-12-28T08:03:36;6.35;;;2.80;;
44750;SDS011;30477;48.224;11.470;2023-12-28T08:06:01;4.43;;;2.70;;
44750;SDS011;30477;48.224;11.470;2023-12-28T08:08:27;4.97;;;2.50;;
44750;SDS011;30477;48.224;11.470;2023-12-28T08:10:52;7.63;;;2.20;;
44750;SDS011;30477;48.224;11.470;2023-12-28T08:13:18;5.43;;;2.70;;
44750;SDS011;30477;48.224;11.470;2023-12-28T08:15:43;3.93;;;2.60;;
44750;SDS011;30477;48.224;11.470;2023-12-28T08:18:11;3.10;;;2.40;;
44750;SDS011;30477;48.224;11.470;2023-12-28T08:20:36;2.93;;;2.40;;
44750;SDS011;30477;48.224;11.470;2023-12-28T08:23:01;2.63;;;2.20;;
44750;SDS011;30477;48.224;11.470;2023-12-28T08:25:27;2.50;;;1.83;;
44750;SDS011;30477;48.224;11.470;2023-12-28T08:27:52;4.27;;;2.33;;
44750;SDS011;30477;48.224;11.470;2023-12-28T08:30:17;3.63;;;2.37;;
44750;SDS011;30477;48.224;11.470;2023-12-28T08:32:43;4.30;;;2.57;;
44750;SDS011;30477;48.224;11.470;2023-12-28T08:35:08;6.37;;;2.80;;
44750;SDS011;30477;48.224;11.470;2023-12-28T08:37:33;6.60;;;2.80;;
44750;SDS011;30477;48.224;11.470;2023-12-28T08:39:59;4.33;;;2.83;;
44750;SDS011;30477;48.224;11.470;2023-12-28T08:42:24;9.10;;;2.73;;
44750;SDS011;30477;48.224;11.470;2023-12-28T08:44:49;9.60;;;2.87;;
44750;SDS011;30477;48.224;11.470;2023-12-28T08:47:15;2.60;;;2.20;;
44750;SDS011;30477;48.224;11.470;2023-12-28T08:49:40;3.53;;;2.37;;
44750;SDS011;30477;48.224;11.470;2023-12-28T08:52:06;6.68;;;2.60;;
44750;SDS011;30477;48.224;11.470;2023-12-28T08:54:31;3.43;;;2.10;;
44750;SDS011;30477;48.224;11.470;2023-12-28T08:56:57;3.83;;;2.30;;
44750;SDS011;30477;48.224;11.470;2023-12-28T08:59:22;3.87;;;2.10;;
44750;SDS011;30477;48.224;11.470;2023-12-28T09:01:47;2.83;;;2.03;;
44750;SDS011;30477;48.224;11.470;2023-12-28T09:04:13;3.20;;;1.93;;
44750;SDS011;30477;48.224;11.470;2023-12-28T09:06:39;3.53;;;2.40;;
44750;SDS011;30477;48.224;11.470;2023-12-28T09:09:04;3.93;;;1.60;;
44750;SDS011;30477;48.224;11.470;2023-12-28T09:11:30;4.60;;;2.08;;
44750;SDS011;30477;48.224;11.470;2023-12-28T09:13:56;3.33;;;1.93;;
44750;SDS011;30477;48.224;11.470;2023-12-28T09:16:21;4.03;;;2.20;;
44750;SDS011;30477;48.224;11.470;2023-12-28T09:18:47;4.00;;;2.30;;
44750;SDS011;30477;48.224;11.470;2023-12-28T09:21:12;3.13;;;2.00;;
44750;SDS011;30477;48.224;11.470;2023-12-28T09:23:37;2.43;;;1.83;;
44750;SDS011;30477;48.224;11.470;2023-12-28T09:26:04;2.05;;;1.63;;
44750;SDS011;30477;48.224;11.470;2023-12-28T09:28:30;1.75;;;1.58;;
44750;SDS011;30477;48.224;11.470;2023-12-28T09:30:56;2.40;;;1.70;;
44750;SDS011;30477;48.224;11.470;2023-12-28T09:33:22;4.10;;;1.93;;
44750;SDS011;30477;48.224;11.470;2023-12-28T09:35:49;3.05;;;1.75;;
44750;SDS011;30477;48.224;11.470;2023-12-28T09:38:14;3.43;;;1.83;;
44750;SDS011;30477;48.224;11.470;2023-12-28T09:40:43;2.70;;;1.80;;
44750;SDS011;30477;48.224;11.470;2023-12-28T09:43:15;4.30;;;1.77;;
44750;SDS011;30477;48.224;11.470;2023-12-28T09:45:47;2.53;;;1.65;;
44750;SDS011;30477;48.224;11.470;2023-12-28T09:48:14;2.58;;;1.90;;
44750;SDS011;30477;48.224;11.470;2023-12-28T09:50:41;2.70;;;2.00;;
44750;SDS011;30477;48.224;11.470;2023-12-28T09:53:07;2.97;;;2.07;;
44750;SDS011;30477;48.224;11.470;2023-12-28T09:55:35;3.33;;;2.00;;
44750;SDS011;30477;48.224;11.470;2023-12-28T09:58:02;4.53;;;2.00;;
44750;SDS011;30477;48.224;11.470;2023-12-28T10:00:30;3.05;;;2.15;;
44750;SDS011;30477;48.224;11.470;2023-12-28T10:02:56;3.70;;;2.47;;
44750;SDS011;30477;48.224;11.470;2023-12-28T10:05:21;6.27;;;2.70;;
44750;SDS011;30477;48.224;11.470;2023-12-28T10:07:47;5.57;;;2.43;;
44750;SDS011;30477;48.224;11.470;2023-12-28T10:10:13;4.05;;;2.45;;
44750;SDS011;30477;48.224;11.470;2023-12-28T10:12:38;4.30;;;2.10;;
44750;SDS011;30477;48.224;11.470;2023-12-28T10:15:04;5.73;;;2.80;;
44750;SDS011;30477;48.224;11.470;2023-12-28T10:17:33;3.35;;;2.45;;
44750;SDS011;30477;48.224;11.470;2023-12-28T10:19:59;4.15;;;2.67;;
44750;SDS011;30477;48.224;11.470;2023-12-28T10:22:29;5.00;;;2.78;;
44750;SDS011;30477;48.224;11.470;2023-12-28T10:24:55;3.58;;;2.70;;
44750;SDS011;30477;48.224;11.470;2023-12-28T10:27:20;6.83;;;3.30;;
44750;SDS011;30477;48.224;11.470;2023-12-28T10:29:46;9.27;;;3.50;;
44750;SDS011;30477;48.224;11.470;2023-12-28T10:32:11;6.10;;;3.30;;
44750;SDS011;30477;48.224;11.470;2023-12-28T10:34:36;3.93;;;3.17;;
44750;SDS011;30477;48.224;11.470;2023-12-28T10:37:02;4.10;;;2.60;;
44750;SDS011;30477;48.224;11.470;2023-12-28T10:39:29;5.03;;;2.80;;
44750;SDS011;30477;48.224;11.470;2023-12-28T10:41:58;4.18;;;2.50;;
44750;SDS011;30477;48.224;11.470;2023-12-28T10:44:28;4.38;;;2.83;;
44750;SDS011;30477;48.224;11.470;2023-12-28T10:47:00;4.40;;;2.50;;
44750;SDS011;30477;48.224;11.470;2023-12-28T10:49:27;3.10;;;2.10;;
44750;SDS011;30477;48.224;11.470;2023-12-28T10:51:58;3.72;;;2.10;;
44750;SDS011;30477;48.224;11.470;2023-12-28T10:54:41;4.10;;;2.10;;
44750;SDS011;30477;48.224;11.470;2023-12-28T10:57:15;3.63;;;2.47;;
44750;SDS011;30477;48.224;11.470;2023-12-28T11:00:11;4.85;;;2.70;;
44750;SDS011;30477;48.224;11.470;2023-12-28T11:02:44;3.15;;;2.40;;
44750;SDS011;30477;48.224;11.470;2023-12-28T11:05:13;4.72;;;2.58;;
44750;SDS011;30477;48.224;11.470;2023-12-28T11:07:40;4.15;;;2.80;;
44750;SDS011;30477;48.224;11.470;2023-12-28T11:10:06;3.75;;;1.90;;
44750;SDS011;30477;48.224;11.470;2023-12-28T11:12:32;4.97;;;2.25;;
44750;SDS011;30477;48.224;11.470;2023-12-28T11:14:59;3.40;;;2.50;;
44750;SDS011;30477;48.224;11.470;2023-12-28T11:17:24;3.88;;;2.30;;
44750;SDS011;30477;48.224;11.470;2023-12-28T11:19:51;3.40;;;2.53;;
44750;SDS011;30477;48.224;11.470;2023-12-28T11:22:18;4.55;;;2.67;;
44750;SDS011;30477;48.224;11.470;2023-12-28T11:24:45;3.10;;;1.85;;
44750;SDS011;30477;48.224;11.470;2023-12-28T11:27:11;2.63;;;1.43;;
44750;SDS011;30477;48.224;11.470;2023-12-28T11:29:37;2.78;;;1.90;;
44750;SDS011;30477;48.224;11.470;2023-12-28T11:32:03;1.70;;;1.33;;
44750;SDS011;30477;48.224;11.470;2023-12-28T11:34:30;4.80;;;1.80;;
44750;SDS011;30477;48.224;11.470;2023-12-28T11:36:59;2.42;;;2.10;;
44750;SDS011;30477;48.224;11.470;2023-12-28T11:39:34;2.58;;;1.73;;
44750;SDS011;30477;48.224;11.470;2023-12-28T11:44:31;3.80;;;2.40;;
44750;SDS011;30477;48.224;11.470;2023-12-28T11:47:13;3.28;;;2.03;;
44750;SDS011;30477;48.224;11.470;2023-12-28T11:49:39;2.58;;;1.75;;
44750;SDS011;30477;48.224;11.470;2023-12-28T11:52:06;3.80;;;1.90;;
44750;SDS011;30477;48.224;11.470;2023-12-28T11:54:32;3.17;;;2.00;;
44750;SDS011;30477;48.224;11.470;2023-12-28T11:56:57;1.97;;;1.60;;
44750;SDS011;30477;48.224;11.470;2023-12-28T11:59:22;2.90;;;1.80;;
44750;SDS011;30477;48.224;11.470;2023-12-28T12:01:54;2.67;;;1.70;;
44750;SDS011;30477;48.224;11.470;2023-12-28T12:04:20;2.85;;;1.80;;
44750;SDS011;30477;48.224;11.470;2023-12-28T12:06:46;3.22;;;1.90;;
44750;SDS011;30477;48.224;11.470;2023-12-28T12:09:12;1.80;;;1.50;;
44750;SDS011;30477;48.224;11.470;2023-12-28T12:14:07;3.60;;;1.55;;
44750;SDS011;30477;48.224;11.470;2023-12-28T12:16:34;3.28;;;1.52;;
44750;SDS011;30477;48.224;11.470;2023-12-28T12:19:00;2.13;;;1.73;;
44750;SDS011;30477;48.224;11.470;2023-12-28T12:21:25;1.80;;;1.50;;
44750;SDS011;30477;48.224;11.470;2023-12-28T12:23:51;2.22;;;1.80;;
44750;SDS011;30477;48.224;11.470;2023-12-28T12:26:20;3.13;;;1.67;;
44750;SDS011;30477;48.224;11.470;2023-12-28T12:28:46;3.10;;;2.10;;
44750;SDS011;30477;48.224;11.470;2023-12-28T12:31:12;2.30;;;1.70;;
44750;SDS011;30477;48.224;11.470;2023-12-28T12:33:37;3.27;;;2.13;;
44750;SDS011;30477;48.224;11.470;2023-12-28T12:36:05;3.38;;;1.95;;
44750;SDS011;30477;48.224;11.470;2023-12-28T12:38:31;3.85;;;2.20;;
44750;SDS011;30477;48.224;11.470;2023-12-28T12:40:57;4.60;;;1.88;;
44750;SDS011;30477;48.224;11.470;2023-12-28T12:43:23;3.40;;;1.83;;
44750;SDS011;30477;48.224;11.470;2023-12-28T12:45:49;2.83;;;1.90;;
44750;SDS011;30477;48.224;11.470;2023-12-28T12:48:14;2.67;;;2.10;;
44750;SDS011;30477;48.224;11.470;2023-12-28T12:50:39;1.60;;;1.43;;
44750;SDS011;30477;48.224;11.470;2023-12-28T12:53:05;4.47;;;2.27;;
44750;SDS011;30477;48.224;11.470;2023-12-28T12:55:30;2.73;;;2.00;;
44750;SDS011;30477;48.224;11.470;2023-12-28T12:57:57;2.50;;;1.93;;
44750;SDS011;30477;48.224;11.470;2023-12-28T13:00:23;3.22;;;1.70;;
44750;SDS011;30477;48.224;11.470;2023-12-28T13:02:52;4.18;;;2.35;;
44750;SDS011;30477;48.224;11.470;2023-12-28T13:05:21;3.97;;;1.90;;
44750;SDS011;30477;48.224;11.470;2023-12-28T13:07:46;2.60;;;1.90;;
44750;SDS011;30477;48.224;11.470;2023-12-28T13:10:12;2.17;;;1.97;;
44750;SDS011;30477;48.224;11.470;2023-12-28T13:12:37;3.10;;;2.10;;
44750;SDS011;30477;48.224;11.470;2023-12-28T13:15:03;3.73;;;2.10;;
44750;SDS011;30477;48.224;11.470;2023-12-28T13:17:28;3.22;;;2.22;;
44750;SDS011;30477;48.224;11.470;2023-12-28T13:19:54;3.60;;;2.40;;
44750;SDS011;30477;48.224;11.470;2023-12-28T13:22:19;3.30;;;2.50;;
44750;SDS011;30477;48.224;11.470;2023-12-28T13:24:44;5.03;;;2.50;;
44750;SDS011;30477;48.224;11.470;2023-12-28T13:27:10;3.87;;;2.00;;
44750;SDS011;30477;48.224;11.470;2023-12-28T13:29:35;3.83;;;2.70;;
44750;SDS011;30477;48.224;11.470;2023-12-28T13:32:01;4.57;;;2.65;;
44750;SDS011;30477;48.224;11.470;2023-12-28T13:34:26;4.20;;;2.70;;
44750;SDS011;30477;48.224;11.470;2023-12-28T13:36:53;4.32;;;2.78;;
44750;SDS011;30477;48.224;11.470;2023-12-28T13:39:19;3.97;;;2.83;;
44750;SDS011;30477;48.224;11.470;2023-12-28T13:41:45;4.70;;;2.80;;
44750;SDS011;30477;48.224;11.470;2023-12-28T13:44:11;7.03;;;3.47;;
44750;SDS011;30477;48.224;11.470;2023-12-28T13:46:37;4.10;;;3.20;;
44750;SDS011;30477;48.224;11.470;2023-12-28T13:49:05;5.53;;;3.45;;
44750;SDS011;30477;48.224;11.470;2023-12-28T13:51:31;3.45;;;2.08;;
44750;SDS011;30477;48.224;11.470;2023-12-28T13:53:57;3.20;;;1.83;;
44750;SDS011;30477;48.224;11.470;2023-12-28T13:56:22;2.90;;;2.10;;
44750;SDS011;30477;48.224;11.470;2023-12-28T13:58:47;5.83;;;1.97;;
44750;SDS011;30477;48.224;11.470;2023-12-28T14:01:13;3.03;;;2.00;;
44750;SDS011;30477;48.224;11.470;2023-12-28T14:03:38;2.95;;;2.25;;
44750;SDS011;30477;48.224;11.470;2023-12-28T14:06:04;4.93;;;2.60;;
44750;SDS011;30477;48.224;11.470;2023-12-28T14:08:30;2.60;;;2.30;;
44750;SDS011;30477;48.224;11.470;2023-12-28T14:10:55;4.57;;;2.37;;
44750;SDS011;30477;48.224;11.470;2023-12-28T14:13:20;4.57;;;2.40;;
44750;SDS011;30477;48.224;11.470;2023-12-28T14:15:46;3.30;;;2.30;;
44750;SDS011;30477;48.224;11.470;2023-12-28T14:18:12;2.63;;;2.07;;
44750;SDS011;30477;48.224;11.470;2023-12-28T14:20:37;3.43;;;2.20;;
44750;SDS011;30477;48.224;11.470;2023-12-28T14:23:02;2.70;;;2.10;;
44750;SDS011;30477;48.224;11.470;2023-12-28T14:25:28;4.93;;;2.40;;
44750;SDS011;30477;48.224;11.470;2023-12-28T14:27:54;3.30;;;2.70;;
44750;SDS011;30477;48.224;11.470;2023-12-28T14:30:19;6.37;;;2.63;;
44750;SDS011;30477;48.224;11.470;2023-12-28T14:32:45;2.97;;;2.15;;
44750;SDS011;30477;48.224;11.470;2023-12-28T14:35:11;5.07;;;2.50;;
44750;SDS011;30477;48.224;11.470;2023-12-28T14:37:36;5.57;;;2.30;;
44750;SDS011;30477;48.224;11.470;2023-12-28T14:40:02;4.90;;;2.65;;
44750;SDS011;30477;48.224;11.470;2023-12-28T14:42:31;3.35;;;2.40;;
44750;SDS011;30477;48.224;11.470;2023-12-28T14:44:57;5.80;;;2.88;;